Time;durP1;ratioP1;P1;durP2;ratioP2;P2;SDS_P1;SDS_P2;PMS_P1;PMS_P2;Temp;Humidity;BMP_temperature;BMP_pressure;BME280_temperature;BME280_humidity;BME280_pressure;Samples;Min_cycle;Max_cycle;Signal;HPM_P1;HPM_P2
2019/11/09 00:00:55;;;;;;;11;10.1;;;;;;;4.64;90.44922;951.1389;;;;
2019/11/09 00:03:20;;;;;;;10.8;9.9;;;;;;;4.6;90.75488;951.1649;;;;
2019/11/09 00:05:45;;;;;;;11.4;10.5;;;;;;;4.51;91.87305;951.1414;;;;
2019/11/09 00:08:10;;;;;;;11;10.1;;;;;;;4.62;91.32813;951.1429;;;;
2019/11/09 00:10:35;;;;;;;10.7;9.8;;;;;;;4.6;91.06152;951.1076;;;;
2019/11/09 00:13:00;;;;;;;9.8;9;;;;;;;4.74;89.95898;951.0253;;;;
2019/11/09 00:15:25;;;;;;;9.5;8.7;;;;;;;4.71;90.39453;950.8922;;;;
2019/11/09 00:17:50;;;;;;;9.7;8.9;;;;;;;4.85;90.19727;950.9056;;;;
2019/11/09 00:20:15;;;;;;;8.5;7.8;;;;;;;5.04;88.37402;951.0453;;;;
2019/11/09 00:22:40;;;;;;;8.2;7.6;;;;;;;4.94;88.37402;951.0701;;;;
2019/11/09 00:25:06;;;;;;;8.1;7.5;;;;;;;4.99;87.87598;951.1046;;;;
2019/11/09 00:27:31;;;;;;;8;7.4;;;;;;;4.76;88.66602;951.0323;;;;
2019/11/09 00:29:56;;;;;;;8.4;7.7;;;;;;;4.84;87.84473;951.0375;;;;
2019/11/09 00:32:21;;;;;;;8.4;7.8;;;;;;;4.78;88.19336;951.0956;;;;
2019/11/09 00:34:46;;;;;;;8.4;7.8;;;;;;;4.64;88.50586;951.1525;;;;
2019/11/09 00:37:11;;;;;;;8.1;7.5;;;;;;;4.67;88.77441;951.2525;;;;
2019/11/09 00:39:36;;;;;;;8.8;8.1;;;;;;;4.52;89.71875;951.3137;;;;
2019/11/09 00:42:01;;;;;;;8.7;7.9;;;;;;;4.57;89.11523;951.3496;;;;
2019/11/09 00:44:26;;;;;;;8.6;7.9;;;;;;;4.52;89.59375;951.4034;;;;
2019/11/09 00:46:51;;;;;;;8.3;7.7;;;;;;;4.44;89.41797;951.5106;;;;
2019/11/09 00:49:16;;;;;;;7.8;7.2;;;;;;;4.68;88.69727;951.7062;;;;
2019/11/09 00:51:41;;;;;;;8.5;7.8;;;;;;;4.62;89.7168;951.7651;;;;
2019/11/09 00:54:07;;;;;;;7.8;7.2;;;;;;;4.73;89.08105;951.6448;;;;
2019/11/09 00:56:32;;;;;;;8.3;7.6;;;;;;;4.51;89.04688;951.5189;;;;
2019/11/09 00:58:57;;;;;;;7.6;7;;;;;;;4.64;88.16699;951.5567;;;;
2019/11/09 01:01:22;;;;;;;7.5;6.9;;;;;;;4.74;87.34766;951.574;;;;
2019/11/09 01:03:47;;;;;;;7.4;6.8;;;;;;;4.41;88.04004;951.5122;;;;
2019/11/09 01:06:13;;;;;;;8;7.3;;;;;;;4.57;87.87793;951.4875;;;;
2019/11/09 01:08:38;;;;;;;7.4;6.8;;;;;;;4.54;87.40723;951.54;;;;
2019/11/09 01:11:03;;;;;;;7.4;6.7;;;;;;;4.51;88.16211;951.5691;;;;
2019/11/09 01:13:28;;;;;;;7.4;6.8;;;;;;;4.51;88.28711;951.4633;;;;
2019/11/09 01:16:05;;;;;;;8.1;7.4;;;;;;;4.52;88.50488;951.4816;;;;
2019/11/09 01:18:30;;;;;;;7.5;6.9;;;;;;;4.46;87.82227;951.4709;;;;
2019/11/09 01:20:55;;;;;;;7.9;7.2;;;;;;;4.39;87.98926;951.4864;;;;
2019/11/09 01:23:20;;;;;;;7.9;7.2;;;;;;;4.42;88.29102;951.4366;;;;
2019/11/09 01:25:45;;;;;;;8;7.4;;;;;;;4.36;88.85645;951.5042;;;;
2019/11/09 01:28:10;;;;;;;8;7.3;;;;;;;4.5;88.21484;951.4945;;;;
2019/11/09 01:30:36;;;;;;;8.2;7.5;;;;;;;4.39;88.55566;951.4929;;;;
2019/11/09 01:33:37;;;;;;;7.7;7.1;;;;;;;4.4;87.95801;951.545;;;;
2019/11/09 01:35:26;;;;;;;7.6;7;;;;;;;4.51;88.23047;951.5335;;;;
2019/11/09 01:37:51;;;;;;;7.9;7.2;;;;;;;4.52;88.23242;951.4154;;;;
2019/11/09 01:40:16;;;;;;;8.4;7.7;;;;;;;4.31;88.9043;951.4796;;;;
2019/11/09 01:42:41;;;;;;;8.4;7.7;;;;;;;4.35;89.6377;951.4523;;;;
2019/11/09 01:45:06;;;;;;;8.1;7.5;;;;;;;4.33;88.77148;951.3879;;;;
2019/11/09 01:47:31;;;;;;;7.8;7.1;;;;;;;4.4;88.64844;951.3571;;;;
2019/11/09 01:49:56;;;;;;;8.4;7.7;;;;;;;4.37;89.24219;951.5034;;;;
2019/11/09 01:52:21;;;;;;;8.5;7.8;;;;;;;4.33;88.87402;951.5886;;;;
2019/11/09 01:54:46;;;;;;;8.2;7.6;;;;;;;4.38;89.23633;951.5597;;;;
2019/11/09 01:57:11;;;;;;;8.8;8.1;;;;;;;4.4;88.72949;951.645;;;;
2019/11/09 01:59:37;;;;;;;8.1;7.5;;;;;;;4.51;88.42285;951.7173;;;;
2019/11/09 02:02:02;;;;;;;9.1;8.4;;;;;;;4.11;89.54102;951.8176;;;;
2019/11/09 02:04:27;;;;;;;8.7;8;;;;;;;4.22;89.61133;951.8405;;;;
2019/11/09 02:06:52;;;;;;;9.3;8.5;;;;;;;4.12;90.30273;951.8242;;;;
2019/11/09 02:09:18;;;;;;;8.9;8.2;;;;;;;4.25;89.51465;951.9196;;;;
2019/11/09 02:11:43;;;;;;;9.6;8.8;;;;;;;4.12;90.33691;951.9645;;;;
2019/11/09 02:14:08;;;;;;;9.6;8.8;;;;;;;4.05;91.16016;952.0028;;;;
2019/11/09 02:16:33;;;;;;;8.9;8.2;;;;;;;4.22;90.36914;951.9258;;;;
2019/11/09 02:18:58;;;;;;;9.6;8.8;;;;;;;4.16;90.9248;951.9692;;;;
2019/11/09 02:21:23;;;;;;;9.7;8.9;;;;;;;4.18;90.36133;951.9429;;;;
2019/11/09 02:23:49;;;;;;;9.7;8.9;;;;;;;4.23;90.17773;951.9866;;;;
2019/11/09 02:26:14;;;;;;;9.2;8.5;;;;;;;4.33;89.62207;952.0073;;;;
2019/11/09 02:28:39;;;;;;;9.1;8.4;;;;;;;4.44;89.28223;951.9478;;;;
2019/11/09 02:31:05;;;;;;;9.1;8.4;;;;;;;4.39;89.55469;951.9542;;;;
2019/11/09 02:33:30;;;;;;;9;8.3;;;;;;;4.39;89.48633;951.984;;;;
2019/11/09 02:35:55;;;;;;;8.6;8;;;;;;;4.35;89.34473;951.9129;;;;
2019/11/09 02:38:21;;;;;;;8.6;7.8;;;;;;;4.43;88.92871;951.8758;;;;
2019/11/09 02:40:46;;;;;;;8.3;7.6;;;;;;;4.41;89.35547;951.8558;;;;
2019/11/09 02:43:11;;;;;;;8.2;7.5;;;;;;;4.54;89.01855;951.8706;;;;
2019/11/09 02:45:36;;;;;;;8.6;7.9;;;;;;;4.54;88.47461;951.8328;;;;
2019/11/09 02:48:01;;;;;;;7.9;7.3;;;;;;;4.65;88.50977;951.8515;;;;
2019/11/09 02:50:26;;;;;;;8.3;7.7;;;;;;;4.47;88.69727;951.7623;;;;
2019/11/09 02:52:52;;;;;;;8.5;7.8;;;;;;;4.45;88.72754;951.8156;;;;
2019/11/09 02:55:17;;;;;;;8.8;8.1;;;;;;;4.53;88.83691;951.7907;;;;
2019/11/09 02:57:42;;;;;;;8.7;8;;;;;;;4.39;89.56543;951.8146;;;;
2019/11/09 03:00:07;;;;;;;8.1;7.5;;;;;;;4.64;88.67578;951.9084;;;;
2019/11/09 03:02:32;;;;;;;8.3;7.7;;;;;;;4.43;89.40527;951.975;;;;
2019/11/09 03:04:58;;;;;;;8.7;8;;;;;;;4.47;89.67383;951.9849;;;;
2019/11/09 03:07:23;;;;;;;8.5;7.9;;;;;;;4.6;88.98438;951.8837;;;;
2019/11/09 03:09:48;;;;;;;8.9;8.2;;;;;;;4.4;89.99902;951.8672;;;;
2019/11/09 03:12:53;;;;;;;8.8;8.1;;;;;;;4.56;89.47656;951.7899;;;;
2019/11/09 03:14:58;;;;;;;8.4;7.6;;;;;;;4.51;89.7959;951.827;;;;
2019/11/09 03:17:11;;;;;;;8.3;7.7;;;;;;;4.49;89.31445;951.8284;;;;
2019/11/09 03:19:29;;;;;;;8.5;7.8;;;;;;;4.42;89.74121;951.8269;;;;
2019/11/09 03:21:54;;;;;;;8;7.4;;;;;;;4.62;88.95605;951.8231;;;;
2019/11/09 03:24:19;;;;;;;8.9;8.1;;;;;;;4.54;89.33691;951.8175;;;;
2019/11/09 03:26:44;;;;;;;9;8.2;;;;;;;4.41;89.84375;951.9556;;;;
2019/11/09 03:29:09;;;;;;;7.9;7.3;;;;;;;4.62;88.79785;952.0151;;;;
2019/11/09 03:31:35;;;;;;;8.5;7.8;;;;;;;4.46;89.47852;952.017;;;;
2019/11/09 03:34:00;;;;;;;8.4;7.7;;;;;;;4.33;90.16699;952.0396;;;;
2019/11/09 03:36:25;;;;;;;8.1;7.5;;;;;;;4.4;90.32813;952.0881;;;;
2019/11/09 03:38:50;;;;;;;8;7.4;;;;;;;4.53;89.43652;952.1448;;;;
2019/11/09 03:41:15;;;;;;;7.9;7.3;;;;;;;4.48;89.94727;952.1294;;;;
2019/11/09 03:43:41;;;;;;;8.1;7.5;;;;;;;4.5;90.29199;952.185;;;;
2019/11/09 03:46:06;;;;;;;7.6;7;;;;;;;4.69;89.43848;952.1785;;;;
2019/11/09 03:48:31;;;;;;;7.6;7;;;;;;;4.7;89.38184;952.2863;;;;
2019/11/09 03:50:56;;;;;;;7.1;6.6;;;;;;;4.68;89.25293;952.2494;;;;
2019/11/09 03:53:21;;;;;;;7.7;7.1;;;;;;;4.68;89.12598;952.2177;;;;
2019/11/09 03:55:46;;;;;;;7.6;6.9;;;;;;;4.59;89.26855;952.2087;;;;
2019/11/09 03:58:11;;;;;;;7.2;6.7;;;;;;;4.66;89.39551;952.1443;;;;
2019/11/09 04:02:33;;;;;;;7.8;7.2;;;;;;;4.49;90.19922;952.1465;;;;
2019/11/09 04:04:58;;;;;;;7.2;6.7;;;;;;;4.59;90.19922;952.1627;;;;
2019/11/09 04:07:23;;;;;;;7.4;6.8;;;;;;;4.61;89.88477;952.178;;;;
2019/11/09 04:09:48;;;;;;;6.9;6.4;;;;;;;4.72;89.73926;952.1995;;;;
2019/11/09 04:12:13;;;;;;;7;6.4;;;;;;;4.74;89.46875;952.2509;;;;
2019/11/09 04:14:38;;;;;;;7.5;6.9;;;;;;;4.61;90.2373;952.2344;;;;
2019/11/09 04:17:03;;;;;;;6.9;6.4;;;;;;;4.65;90.14453;952.2581;;;;
2019/11/09 04:19:28;;;;;;;7.1;6.5;;;;;;;4.69;89.64063;952.3649;;;;
2019/11/09 04:21:53;;;;;;;6.8;6.3;;;;;;;4.46;90.32031;952.3478;;;;
2019/11/09 04:24:19;;;;;;;6.4;5.8;;;;;;;4.63;90.12891;952.3848;;;;
2019/11/09 04:26:44;;;;;;;6.5;6;;;;;;;4.55;90.43945;952.3488;;;;
2019/11/09 04:29:09;;;;;;;6.4;5.9;;;;;;;4.65;89.84766;952.421;;;;
2019/11/09 04:31:34;;;;;;;6.7;6.2;;;;;;;4.61;90.16699;952.4381;;;;
2019/11/09 04:33:59;;;;;;;6.2;5.7;;;;;;;4.69;89.2666;952.4182;;;;
2019/11/09 04:36:24;;;;;;;6;5.5;;;;;;;4.85;89.21875;952.4164;;;;
2019/11/09 04:38:49;;;;;;;6;5.5;;;;;;;4.76;89.42676;952.5017;;;;
2019/11/09 04:41:14;;;;;;;6.1;5.6;;;;;;;4.76;89.24707;952.5834;;;;
2019/11/09 04:43:39;;;;;;;6.2;5.7;;;;;;;4.7;90.1084;952.705;;;;
2019/11/09 04:46:04;;;;;;;5.8;5.3;;;;;;;4.75;89.69922;952.7104;;;;
2019/11/09 04:48:29;;;;;;;5.6;5.1;;;;;;;4.9;89.27539;952.6889;;;;
2019/11/09 04:50:55;;;;;;;5.9;5.4;;;;;;;4.86;89.25488;952.7194;;;;
2019/11/09 04:53:20;;;;;;;5.7;5.2;;;;;;;4.92;88.82715;952.7639;;;;
2019/11/09 04:55:45;;;;;;;5.6;5.1;;;;;;;4.97;88.80176;952.872;;;;
2019/11/09 04:58:10;;;;;;;6.2;5.7;;;;;;;4.92;89.17871;952.8511;;;;
2019/11/09 05:00:35;;;;;;;5.7;5.2;;;;;;;4.94;88.95508;952.8445;;;;
2019/11/09 05:03:00;;;;;;;5.8;5.3;;;;;;;4.91;89.31348;952.9131;;;;
2019/11/09 05:05:25;;;;;;;5.8;5.3;;;;;;;4.76;90.03125;952.9634;;;;
2019/11/09 05:07:50;;;;;;;6;5.5;;;;;;;4.92;89.18848;952.9285;;;;
2019/11/09 05:10:16;;;;;;;5.6;5.1;;;;;;;4.94;89.08008;952.9924;;;;
2019/11/09 05:12:41;;;;;;;5.6;5.1;;;;;;;4.94;89.00098;953.0366;;;;
2019/11/09 05:15:06;;;;;;;5.8;5.3;;;;;;;4.79;89.95703;953.0733;;;;
2019/11/09 05:17:31;;;;;;;5.5;5;;;;;;;4.83;89.82813;953.0969;;;;
2019/11/09 05:19:56;;;;;;;5.8;5.3;;;;;;;4.78;90.96387;953.1575;;;;
2019/11/09 05:22:21;;;;;;;5.7;5.2;;;;;;;4.58;91.51367;953.1887;;;;
2019/11/09 05:24:46;;;;;;;6;5.5;;;;;;;4.61;92.85742;953.2062;;;;
2019/11/09 05:27:11;;;;;;;5.8;5.3;;;;;;;4.67;92.62305;953.2495;;;;
2019/11/09 05:29:36;;;;;;;5.8;5.2;;;;;;;4.61;93.34473;953.2659;;;;
2019/11/09 05:32:01;;;;;;;5.6;5;;;;;;;4.74;92.08203;953.2242;;;;
2019/11/09 05:34:26;;;;;;;5.6;5.1;;;;;;;4.69;92.66113;953.2395;;;;
2019/11/09 05:36:52;;;;;;;6;5.5;;;;;;;4.63;93.29395;953.2683;;;;
2019/11/09 05:39:17;;;;;;;6.4;5.9;;;;;;;4.64;94.05664;953.2897;;;;
2019/11/09 05:41:42;;;;;;;6;5.5;;;;;;;4.65;93.95703;953.2642;;;;
2019/11/09 05:44:07;;;;;;;6.1;5.6;;;;;;;4.57;93.76855;953.2535;;;;
2019/11/09 05:46:32;;;;;;;5.3;4.9;;;;;;;4.63;93.66895;953.3442;;;;
2019/11/09 05:48:57;;;;;;;5;4.6;;;;;;;4.69;92.39941;953.3864;;;;
2019/11/09 05:51:22;;;;;;;5.3;4.9;;;;;;;4.57;92.58789;953.3455;;;;
2019/11/09 05:53:47;;;;;;;5.3;4.8;;;;;;;4.62;92.83789;953.3117;;;;
2019/11/09 05:56:12;;;;;;;5.1;4.7;;;;;;;4.57;93.08789;953.2915;;;;
2019/11/09 05:58:37;;;;;;;5.1;4.7;;;;;;;4.69;93.47852;953.2992;;;;
2019/11/09 06:01:03;;;;;;;4.6;4.2;;;;;;;4.74;91.03516;953.3283;;;;
2019/11/09 06:03:28;;;;;;;5.2;4.8;;;;;;;4.7;91.69824;953.4433;;;;
2019/11/09 06:05:53;;;;;;;4.8;4.4;;;;;;;4.73;91.94238;953.4338;;;;
2019/11/09 06:08:18;;;;;;;4.4;4.1;;;;;;;4.68;92.33008;953.4169;;;;
2019/11/09 06:10:43;;;;;;;4.5;4.1;;;;;;;4.78;91.8623;953.44;;;;
2019/11/09 06:13:08;;;;;;;5;4.6;;;;;;;4.87;92.04102;953.4508;;;;
2019/11/09 06:15:33;;;;;;;4.5;4.1;;;;;;;4.84;92.04688;953.5266;;;;
2019/11/09 06:17:58;;;;;;;5.4;4.9;;;;;;;4.74;91.35352;953.5284;;;;
2019/11/09 06:20:24;;;;;;;4.8;4.1;;;;;;;4.94;91.7041;953.5645;;;;
2019/11/09 06:22:49;;;;;;;4.4;4.1;;;;;;;4.6;91.56152;953.5925;;;;
2019/11/09 06:25:14;;;;;;;4.7;4.4;;;;;;;4.54;91.93555;953.7076;;;;
2019/11/09 06:27:39;;;;;;;5.1;4.7;;;;;;;4.48;92.72754;953.6256;;;;
2019/11/09 06:30:05;;;;;;;5.4;4.9;;;;;;;4.49;93.6377;953.6501;;;;
2019/11/09 06:32:30;;;;;;;5.3;4.9;;;;;;;4.46;92.75977;953.6923;;;;
2019/11/09 06:34:56;;;;;;;5.5;5.1;;;;;;;4.73;91.91895;953.6905;;;;
2019/11/09 06:37:21;;;;;;;5.2;4.7;;;;;;;4.64;91.75293;953.7117;;;;
2019/11/09 06:39:46;;;;;;;5.3;4.8;;;;;;;4.74;91.61621;953.7351;;;;
2019/11/09 06:42:11;;;;;;;5.5;5;;;;;;;4.59;91.77734;953.7455;;;;
2019/11/09 06:44:36;;;;;;;5.5;5;;;;;;;4.77;91.98535;953.7861;;;;
2019/11/09 06:47:01;;;;;;;5.9;5.4;;;;;;;4.64;92.08203;953.8053;;;;
2019/11/09 06:49:26;;;;;;;5.8;5.3;;;;;;;4.81;91.17773;953.7372;;;;
2019/11/09 06:51:51;;;;;;;5.9;5.4;;;;;;;4.8;91.52637;953.7942;;;;
2019/11/09 06:54:17;;;;;;;6;5.5;;;;;;;4.99;90.6123;953.8073;;;;
2019/11/09 06:56:42;;;;;;;5.8;5.3;;;;;;;4.97;90.29004;953.7875;;;;
2019/11/09 06:59:07;;;;;;;5.6;5.1;;;;;;;4.86;90.37891;953.7903;;;;
2019/11/09 07:01:33;;;;;;;5.6;5.2;;;;;;;4.96;90.44727;953.8281;;;;
2019/11/09 07:03:58;;;;;;;5.7;5.2;;;;;;;4.94;91.09082;953.8326;;;;
2019/11/09 07:06:23;;;;;;;5.9;5.4;;;;;;;4.91;91.16309;953.8808;;;;
2019/11/09 07:08:48;;;;;;;5.6;5.2;;;;;;;4.98;90.33984;953.8976;;;;
2019/11/09 07:11:13;;;;;;;5.6;5.2;;;;;;;4.92;90.67773;953.9409;;;;
2019/11/09 07:13:38;;;;;;;5.8;5.3;;;;;;;5.04;90.68066;953.943;;;;
2019/11/09 07:16:03;;;;;;;5.9;5.4;;;;;;;4.98;90.8623;954.0364;;;;
2019/11/09 07:18:28;;;;;;;5.9;5.4;;;;;;;4.94;90.56641;954.0569;;;;
2019/11/09 07:20:54;;;;;;;6.6;5.7;;;;;;;4.9;90.86523;954.0644;;;;
2019/11/09 07:23:19;;;;;;;5.7;5.2;;;;;;;5.03;90.53027;954.0581;;;;
2019/11/09 07:25:44;;;;;;;5.5;5.1;;;;;;;5.21;89.30859;954.0872;;;;
2019/11/09 07:28:09;;;;;;;6.2;5.7;;;;;;;5.01;90.27734;954.1196;;;;
2019/11/09 07:30:34;;;;;;;6.3;5.7;;;;;;;5.19;89.83691;954.1027;;;;
2019/11/09 07:32:59;;;;;;;6.4;5.8;;;;;;;5.15;90.55566;954.1611;;;;
2019/11/09 07:35:24;;;;;;;6.2;5.7;;;;;;;4.98;90.43066;954.1518;;;;
2019/11/09 07:37:49;;;;;;;6.6;6;;;;;;;5.1;90.79395;954.1668;;;;
2019/11/09 07:40:14;;;;;;;6;5.5;;;;;;;5.17;90.18359;954.1704;;;;
2019/11/09 07:42:39;;;;;;;6.7;6.1;;;;;;;5.09;90.00977;954.1602;;;;
2019/11/09 07:45:05;;;;;;;6.5;5.9;;;;;;;5.17;90.05859;954.1641;;;;
2019/11/09 07:47:30;;;;;;;6.9;5.9;;;;;;;5.23;89.51563;954.2062;;;;
2019/11/09 07:49:55;;;;;;;6.4;5.8;;;;;;;5.04;90.20313;954.2514;;;;
2019/11/09 07:52:20;;;;;;;6.7;6;;;;;;;5.03;90.23535;954.2262;;;;
2019/11/09 07:54:45;;;;;;;6.3;5.7;;;;;;;5.23;89.28613;954.1836;;;;
2019/11/09 07:57:10;;;;;;;7.1;6.2;;;;;;;5.2;89.88477;954.2167;;;;
2019/11/09 07:59:35;;;;;;;6.9;6.2;;;;;;;4.96;89.81152;954.2753;;;;
2019/11/09 08:02:00;;;;;;;7;6.3;;;;;;;5.23;89.49414;954.2753;;;;
2019/11/09 08:04:25;;;;;;;7.1;6.4;;;;;;;5.13;89.76758;954.2606;;;;
2019/11/09 08:06:50;;;;;;;9.7;7.9;;;;;;;5.32;89.71777;954.3148;;;;
2019/11/09 08:09:16;;;;;;;8.2;6.7;;;;;;;5.2;89.18945;954.2812;;;;
2019/11/09 08:11:41;;;;;;;9.2;6.7;;;;;;;5.28;89.10449;954.2708;;;;
2019/11/09 08:14:06;;;;;;;7.6;6.7;;;;;;;5.14;89.51953;954.2615;;;;
2019/11/09 08:16:32;;;;;;;7.5;6.7;;;;;;;5.18;89.88086;954.2656;;;;
2019/11/09 08:18:57;;;;;;;8;7;;;;;;;5.2;90.08789;954.2981;;;;
2019/11/09 08:21:22;;;;;;;7.5;6.8;;;;;;;5.32;89.88867;954.2882;;;;
2019/11/09 08:23:47;;;;;;;8.1;6.7;;;;;;;5.41;89.20996;954.3214;;;;
2019/11/09 08:26:12;;;;;;;8.1;7.2;;;;;;;5.23;89.46973;954.2838;;;;
2019/11/09 08:28:38;;;;;;;10.1;7.6;;;;;;;5.25;89.68945;954.3184;;;;
2019/11/09 08:31:03;;;;;;;8.7;7.8;;;;;;;5.29;89.64258;954.3535;;;;
2019/11/09 08:33:28;;;;;;;9.9;8.9;;;;;;;5.13;90.54004;954.2881;;;;
2019/11/09 08:35:53;;;;;;;8.7;7.8;;;;;;;5.15;90.9668;954.3172;;;;
2019/11/09 08:38:18;;;;;;;8.5;7.5;;;;;;;5.43;90.08008;954.2623;;;;
2019/11/09 08:40:43;;;;;;;8.6;7.7;;;;;;;5.27;90.54785;954.2076;;;;
2019/11/09 08:43:08;;;;;;;8.7;7.7;;;;;;;5.23;91.7207;954.2031;;;;
2019/11/09 08:45:33;;;;;;;9.2;7.6;;;;;;;5.28;90.91309;954.2386;;;;
2019/11/09 08:47:59;;;;;;;10;7.5;;;;;;;5.4;90.37012;954.2874;;;;
2019/11/09 08:50:24;;;;;;;9.7;7.7;;;;;;;5.38;91.44434;954.3699;;;;
2019/11/09 08:52:49;;;;;;;8.5;7.6;;;;;;;5.63;90.4873;954.4124;;;;
2019/11/09 08:55:15;;;;;;;8.9;7.7;;;;;;;5.53;89.90918;954.3712;;;;
2019/11/09 08:57:40;;;;;;;8.8;7.9;;;;;;;5.67;89.73438;954.4595;;;;
2019/11/09 09:00:05;;;;;;;9.2;8;;;;;;;5.56;89.7666;954.4949;;;;
2019/11/09 09:02:30;;;;;;;8.8;7.9;;;;;;;5.68;89.34766;954.4725;;;;
2019/11/09 09:04:55;;;;;;;9.3;7.7;;;;;;;5.66;89.62793;954.4745;;;;
2019/11/09 09:07:20;;;;;;;9.1;8.1;;;;;;;5.63;89.82715;954.5335;;;;
2019/11/09 09:09:46;;;;;;;10.5;8.4;;;;;;;5.76;89.26172;954.5016;;;;
2019/11/09 09:12:11;;;;;;;10;8.1;;;;;;;5.77;88.71777;954.5463;;;;
2019/11/09 09:14:36;;;;;;;9.5;8.2;;;;;;;5.72;88.42383;954.6502;;;;
2019/11/09 09:17:01;;;;;;;10.7;8.4;;;;;;;5.7;88.46582;954.6317;;;;
2019/11/09 09:19:26;;;;;;;10.7;8.4;;;;;;;5.77;88.19531;954.6623;;;;
2019/11/09 09:21:51;;;;;;;10.6;7.9;;;;;;;5.76;88.85254;954.7078;;;;
2019/11/09 09:24:16;;;;;;;12.3;8.1;;;;;;;5.69;89.27148;954.7318;;;;
2019/11/09 09:26:42;;;;;;;10.8;8;;;;;;;5.75;88.54102;954.6639;;;;
2019/11/09 09:29:07;;;;;;;10.8;8.1;;;;;;;5.77;88.70801;954.7819;;;;
2019/11/09 09:31:32;;;;;;;10.1;8.4;;;;;;;5.73;88.73242;954.7933;;;;
2019/11/09 09:33:57;;;;;;;11.3;8;;;;;;;5.62;88.70898;954.8127;;;;
2019/11/09 09:36:22;;;;;;;9.2;7.8;;;;;;;5.78;89.11719;954.8215;;;;
2019/11/09 09:38:48;;;;;;;10.2;7.5;;;;;;;6.1;88.01367;954.8172;;;;
2019/11/09 09:41:13;;;;;;;9.4;7.8;;;;;;;;;;;;;
2019/11/09 09:43:38;;;;;;;11;7.8;;;;;;;;;;;;;
2019/11/09 09:46:03;;;;;;;12.7;8.3;;;;;;;;;;;;;
2019/11/09 09:48:28;;;;;;;11.9;7.9;;;;;;;;;;;;;
2019/11/09 09:50:53;;;;;;;10.4;8.1;;;;;;;;;;;;;
2019/11/09 09:53:19;;;;;;;11.7;8.1;;;;;;;;;;;;;
2019/11/09 09:55:44;;;;;;;11.2;8;;;;;;;;;;;;;
2019/11/09 09:58:09;;;;;;;9.8;8.1;;;;;;;;;;;;;
2019/11/09 10:00:34;;;;;;;9.4;7.6;;;;;;;;;;;;;
2019/11/09 10:02:59;;;;;;;10.4;7.9;;;;;;;;;;;;;
2019/11/09 10:05:24;;;;;;;10.2;7.7;;;;;;;;;;;;;
2019/11/09 10:07:49;;;;;;;10.2;7.9;;;;;;;;;;;;;
2019/11/09 10:10:14;;;;;;;11.7;8.5;;;;;;;;;;;;;
2019/11/09 10:12:40;;;;;;;9.7;8;;;;;;;;;;;;;
2019/11/09 10:15:05;;;;;;;10.6;7.7;;;;;;;;;;;;;
2019/11/09 10:17:30;;;;;;;11.7;7.7;;;;;;;;;;;;;
2019/11/09 10:19:55;;;;;;;10.9;8.2;;;;;;;;;;;;;
2019/11/09 10:22:20;;;;;;;10.2;7.9;;;;;;;;;;;;;
2019/11/09 10:24:45;;;;;;;10.2;7.6;;;;;;;;;;;;;
2019/11/09 10:27:10;;;;;;;10.2;7.6;;;;;;;;;;;;;
2019/11/09 10:29:35;;;;;;;10;8.1;;;;;;;;;;;;;
2019/11/09 10:32:00;;;;;;;11;7.5;;;;;;;;;;;;;
2019/11/09 10:34:26;;;;;;;9.5;7.3;;;;;;;;;;;;;
2019/11/09 10:36:51;;;;;;;9.5;7.6;;;;;;;;;;;;;
2019/11/09 10:39:16;;;;;;;9.2;6.8;;;;;;;;;;;;;
2019/11/09 10:41:41;;;;;;;10.6;7.6;;;;;;;;;;;;;
2019/11/09 10:44:06;;;;;;;11;6.9;;;;;;;;;;;;;
2019/11/09 10:46:31;;;;;;;9.6;7.1;;;;;;;;;;;;;
2019/11/09 10:48:56;;;;;;;11;7.6;;;;;;;;;;;;;
2019/11/09 10:51:22;;;;;;;11.3;7.7;;;;;;;;;;;;;
2019/11/09 10:53:47;;;;;;;8.7;7.4;;;;;;;;;;;;;
2019/11/09 10:56:12;;;;;;;11.9;8.9;;;;;;;;;;;;;
2019/11/09 10:58:37;;;;;;;10.5;7.9;;;;;;;;;;;;;
2019/11/09 11:01:02;;;;;;;10.5;7.8;;;;;;;;;;;;;
2019/11/09 11:03:27;;;;;;;10.9;7.7;;;;;;;;;;;;;
2019/11/09 11:05:52;;;;;;;10.3;7.6;;;;;;;;;;;;;
2019/11/09 11:08:17;;;;;;;9.1;7.3;;;;;;;;;;;;;
2019/11/09 11:10:42;;;;;;;9;6.9;;;;;;;;;;;;;
2019/11/09 11:13:07;;;;;;;10.5;6.6;;;;;;;;;;;;;
2019/11/09 11:15:33;;;;;;;16.4;6.9;;;;;;;;;;;;;
2019/11/09 11:17:58;;;;;;;7.8;6.2;;;;;;;;;;;;;
2019/11/09 11:20:23;;;;;;;9.1;6.8;;;;;;;;;;;;;
2019/11/09 11:22:48;;;;;;;8.9;6.1;;;;;;;;;;;;;
2019/11/09 11:25:13;;;;;;;8.1;6.4;;;;;;;;;;;;;
2019/11/09 11:27:38;;;;;;;8.1;6.1;;;;;;;;;;;;;
2019/11/09 11:30:03;;;;;;;7.4;5.8;;;;;;;;;;;;;
2019/11/09 11:32:28;;;;;;;7.5;5.9;;;;;;;;;;;;;
2019/11/09 11:34:53;;;;;;;7.6;5.8;;;;;;;;;;;;;
2019/11/09 11:37:18;;;;;;;7.1;5.3;;;;;;;;;;;;;
2019/11/09 11:39:44;;;;;;;8;5.8;;;;;;;;;;;;;
2019/11/09 11:42:09;;;;;;;8.2;6;;;;;;;;;;;;;
2019/11/09 11:44:34;;;;;;;8;6;;;;;;;;;;;;;
2019/11/09 11:46:59;;;;;;;8.3;6.1;;;;;;;;;;;;;
2019/11/09 11:49:24;;;;;;;7;5.3;;;;;;;;;;;;;
2019/11/09 11:51:49;;;;;;;7.8;5.7;;;;;;;;;;;;;
2019/11/09 11:54:15;;;;;;;6.6;5.1;;;;;;;;;;;;;
2019/11/09 11:56:40;;;;;;;7.6;4.9;;;;;;;;;;;;;
2019/11/09 11:59:05;;;;;;;6.3;4.9;;;;;;;;;;;;;
2019/11/09 12:01:30;;;;;;;7.4;5.1;;;;;;;;;;;;;
2019/11/09 12:03:55;;;;;;;6.4;5.2;;;;;;;;;;;;;
2019/11/09 12:06:20;;;;;;;7.2;4.7;;;;;;;;;;;;;
2019/11/09 12:08:45;;;;;;;7.7;5;;;;;;;;;;;;;
2019/11/09 12:11:10;;;;;;;6.4;4.5;;;;;;;;;;;;;
2019/11/09 12:13:35;;;;;;;6.6;4.5;;;;;;;;;;;;;
2019/11/09 12:16:00;;;;;;;7.3;4.3;;;;;;;;;;;;;
2019/11/09 12:18:26;;;;;;;7.9;4.9;;;;;;;;;;;;;
2019/11/09 12:20:51;;;;;;;6.3;4.3;;;;;;;;;;;;;
2019/11/09 12:23:16;;;;;;;7.9;5.1;;;;;;;;;;;;;
2019/11/09 12:25:41;;;;;;;7.8;5.4;;;;;;;;;;;;;
2019/11/09 12:28:06;;;;;;;7.5;4.7;;;;;;;;;;;;;
2019/11/09 12:30:31;;;;;;;6.9;4.8;;;;;;;;;;;;;
2019/11/09 12:32:56;;;;;;;7.9;5.2;;;;;;;;;;;;;
2019/11/09 12:35:21;;;;;;;6.2;4.3;;;;;;;;;;;;;
2019/11/09 12:37:46;;;;;;;6.8;4.2;;;;;;;;;;;;;
2019/11/09 12:40:11;;;;;;;6.6;4.2;;;;;;;;;;;;;
2019/11/09 12:42:37;;;;;;;6.6;4.3;;;;;;;;;;;;;
2019/11/09 12:45:02;;;;;;;7;4.5;;;;;;;;;;;;;
2019/11/09 12:47:27;;;;;;;7.7;4.5;;;;;;;;;;;;;
2019/11/09 12:49:52;;;;;;;8.1;4.8;;;;;;;;;;;;;
2019/11/09 12:52:17;;;;;;;6.5;4.2;;;;;;;;;;;;;
2019/11/09 12:54:42;;;;;;;6.3;4;;;;;;;;;;;;;
2019/11/09 12:57:07;;;;;;;5.6;3.9;;;;;;;;;;;;;
2019/11/09 12:59:32;;;;;;;7.1;3.8;;;;;;;;;;;;;
2019/11/09 13:01:57;;;;;;;8.2;3.9;;;;;;;;;;;;;
2019/11/09 13:04:22;;;;;;;6.1;3.5;;;;;;;;;;;;;
2019/11/09 13:06:47;;;;;;;4.2;3;;;;;;;;;;;;;
2019/11/09 13:09:13;;;;;;;5.1;3.7;;;;;;;;;;;;;
2019/11/09 13:11:37;;;;;;;5.3;3.9;;;;;;;;;;;;;
2019/11/09 13:14:03;;;;;;;5.3;3.4;;;;;;;;;;;;;
2019/11/09 13:16:28;;;;;;;4.8;3.4;;;;;;;;;;;;;
2019/11/09 13:18:53;;;;;;;6.4;3.6;;;;;;;;;;;;;
2019/11/09 13:21:18;;;;;;;6.3;3.4;;;;;;;;;;;;;
2019/11/09 13:23:43;;;;;;;5.7;3.3;;;;;;;;;;;;;
2019/11/09 13:26:08;;;;;;;5;3.3;;;;;;;;;;;;;
2019/11/09 13:28:33;;;;;;;5.1;3.2;;;;;;;;;;;;;
2019/11/09 13:30:59;;;;;;;4.1;3.1;;;;;;;;;;;;;
2019/11/09 13:33:24;;;;;;;6.1;3.3;;;;;;;;;;;;;
2019/11/09 13:35:49;;;;;;;5.3;3.3;;;;;;;;;;;;;
2019/11/09 13:38:14;;;;;;;6;3.5;;;;;;;;;;;;;
2019/11/09 13:40:39;;;;;;;5.8;3.5;;;;;;;;;;;;;
2019/11/09 13:43:04;;;;;;;5.4;3.2;;;;;;;;;;;;;
2019/11/09 13:45:29;;;;;;;5.4;3.4;;;;;;;;;;;;;
2019/11/09 13:47:54;;;;;;;6;3.3;;;;;;;;;;;;;
2019/11/09 13:50:20;;;;;;;6.4;3.7;;;;;;;;;;;;;
2019/11/09 13:52:45;;;;;;;4.8;3.4;;;;;;;;;;;;;
2019/11/09 13:55:10;;;;;;;13.6;10.3;;;;;;;;;;;;;
2019/11/09 13:57:35;;;;;;;8.6;5.4;;;;;;;;;;;;;
2019/11/09 14:00:00;;;;;;;5.3;3.3;;;;;;;;;;;;;
2019/11/09 14:02:25;;;;;;;5.8;3.6;;;;;;;;;;;;;
2019/11/09 14:04:50;;;;;;;5.1;3.2;;;;;;;;;;;;;
2019/11/09 14:07:15;;;;;;;5.4;2.8;;;;;;;;;;;;;
2019/11/09 14:09:40;;;;;;;4.3;2.7;;;;;;;;;;;;;
2019/11/09 14:12:05;;;;;;;4.8;2.6;;;;;;;;;;;;;
2019/11/09 14:14:31;;;;;;;5.8;2.7;;;;;;;;;;;;;
2019/11/09 14:16:56;;;;;;;5.4;2.5;;;;;;;;;;;;;
2019/11/09 14:19:21;;;;;;;4.8;2.7;;;;;;;;;;;;;
2019/11/09 14:21:46;;;;;;;5.9;2.9;;;;;;;;;;;;;
2019/11/09 14:24:11;;;;;;;4.3;2.8;;;;;;;;;;;;;
2019/11/09 14:26:36;;;;;;;4.6;3.3;;;;;;;;;;;;;
2019/11/09 14:29:01;;;;;;;5.3;3;;;;;;;;;;;;;
2019/11/09 14:31:26;;;;;;;4.8;3.2;;;;;;;;;;;;;
2019/11/09 14:33:51;;;;;;;4.2;2.8;;;;;;;;;;;;;
2019/11/09 14:36:17;;;;;;;5.9;3;;;;;;;;;;;;;
2019/11/09 14:38:42;;;;;;;5.3;2.9;;;;;;;;;;;;;
2019/11/09 14:41:07;;;;;;;5.6;3.1;;;;;;;;;;;;;
2019/11/09 14:43:32;;;;;;;6.3;3.1;;;;;;;;;;;;;
2019/11/09 14:45:57;;;;;;;4.4;2.5;;;;;;;;;;;;;
2019/11/09 14:48:22;;;;;;;4.2;2.8;;;;;;;;;;;;;
2019/11/09 14:50:47;;;;;;;6.9;4.3;;;;;;;;;;;;;
2019/11/09 14:53:12;;;;;;;4.2;2.6;;;;;;;;;;;;;
2019/11/09 14:55:37;;;;;;;4.2;2.5;;;;;;;;;;;;;
2019/11/09 14:58:03;;;;;;;4.8;2.6;;;;;;;;;;;;;
2019/11/09 15:00:28;;;;;;;3.9;2.4;;;;;;;;;;;;;
2019/11/09 15:02:53;;;;;;;4.6;2.7;;;;;;;;;;;;;
2019/11/09 15:05:18;;;;;;;3.8;2.3;;;;;;;;;;;;;
2019/11/09 15:07:43;;;;;;;4.5;2.5;;;;;;;;;;;;;
2019/11/09 15:10:08;;;;;;;5.8;2.8;;;;;;;;;;;;;
2019/11/09 15:12:33;;;;;;;6;2.8;;;;;;;;;;;;;
2019/11/09 15:14:58;;;;;;;4;2.6;;;;;;;;;;;;;
2019/11/09 15:17:23;;;;;;;4.4;2.8;;;;;;;;;;;;;
2019/11/09 15:19:49;;;;;;;3.8;2.7;;;;;;;;;;;;;
2019/11/09 15:22:14;;;;;;;4.4;2.7;;;;;;;;;;;;;
2019/11/09 15:24:39;;;;;;;4.2;2.6;;;;;;;;;;;;;
2019/11/09 15:27:04;;;;;;;4.9;2.8;;;;;;;;;;;;;
2019/11/09 15:29:29;;;;;;;5.2;3;;;;;;;;;;;;;
2019/11/09 15:31:54;;;;;;;5.4;3.2;;;;;;;;;;;;;
2019/11/09 15:35:09;;;;;;;5.7;2.7;;;;;;;7.17;77.51074;953.993;;;;
2019/11/09 15:37:34;;;;;;;4.6;3;;;;;;;7.14;77.98535;953.947;;;;
2019/11/09 15:39:59;;;;;;;5;3.2;;;;;;;7.15;77.1748;954.0029;;;;
2019/11/09 15:42:24;;;;;;;4.2;3;;;;;;;7;80.32227;953.9318;;;;
2019/11/09 15:44:49;;;;;;;5.1;3.5;;;;;;;6.99;79.34961;953.9103;;;;
2019/11/09 15:47:14;;;;;;;6.8;3.8;;;;;;;6.95;79.77539;954.0033;;;;
2019/11/09 15:49:39;;;;;;;5.5;3.4;;;;;;;6.81;81.1875;953.9871;;;;
2019/11/09 15:52:04;;;;;;;5.4;3.5;;;;;;;6.77;81.41895;953.9739;;;;
2019/11/09 15:54:29;;;;;;;5.8;3.8;;;;;;;6.69;82.09766;953.9612;;;;
2019/11/09 15:56:54;;;;;;;6.2;3.5;;;;;;;6.6;82.27637;953.9447;;;;
2019/11/09 15:59:19;;;;;;;5.1;3.3;;;;;;;6.71;81.79492;953.9587;;;;
2019/11/09 16:01:45;;;;;;;6;3.5;;;;;;;6.72;81.87793;953.9816;;;;
2019/11/09 16:04:10;;;;;;;5.5;3.5;;;;;;;6.7;82.18066;953.9802;;;;
2019/11/09 16:06:35;;;;;;;6.2;3.5;;;;;;;6.67;82.13965;954.019;;;;
2019/11/09 16:09:00;;;;;;;6.8;3.5;;;;;;;6.59;82.62988;953.9817;;;;
2019/11/09 16:11:25;;;;;;;5.6;3.5;;;;;;;6.57;81.89258;954.053;;;;